Time;durP1;ratioP1;P1;durP2;ratioP2;P2;SDS_P1;SDS_P2;PMS_P1;PMS_P2;Temp;Humidity;BMP_temperature;BMP_pressure;BME280_temperature;BME280_humidity;BME280_pressure;Samples;Min_cycle;Max_cycle;Signal;HPM_P1;HPM_P2
2023/03/22 00:01:20;;;;;;;2.77;1.80;;;10.50;99.90;;;;;;5040581;28;20399;-82
2023/03/22 00:03:47;;;;;;;2.08;1.77;;;10.50;99.90;;;;;;5040486;28;20406;-82
2023/03/22 00:06:13;;;;;;;2.20;2.00;;;10.40;1.00;;;;;;5041150;28;20391;-81
2023/03/22 00:08:38;;;;;;;2.03;1.58;;;10.30;1.00;;;;;;5023817;28;20988;-82
2023/03/22 00:11:05;;;;;;;2.07;1.87;;;10.30;1.00;;;;;;5022893;28;20399;-82
2023/03/22 00:13:32;;;;;;;3.05;1.80;;;10.30;1.00;;;;;;5047618;28;20411;-81
2023/03/22 00:15:58;;;;;;;2.40;1.77;;;10.30;1.00;;;;;;5030789;28;20395;-81
2023/03/22 00:18:24;;;;;;;2.50;1.70;;;10.50;1.00;;;;;;5049936;28;20403;-81
2023/03/22 00:20:52;;;;;;;3.10;2.08;;;10.50;99.90;;;;;;5032715;28;20372;-80
2023/03/22 00:23:18;;;;;;;2.75;1.70;;;10.30;1.00;;;;;;5040157;28;20733;-82
2023/03/22 00:25:44;;;;;;;2.20;1.60;;;10.20;1.00;;;;;;5038790;28;20484;-82
2023/03/22 00:28:11;;;;;;;2.63;1.92;;;10.20;1.00;;;;;;5022354;28;20387;-81
2023/03/22 00:30:36;;;;;;;2.40;1.50;;;10.00;1.00;;;;;;5041279;28;20403;-81
2023/03/22 00:33:02;;;;;;;2.92;1.80;;;10.00;1.00;;;;;;5021354;28;20493;-82
2023/03/22 00:35:28;;;;;;;2.85;2.00;;;10.50;99.90;;;;;;5019866;28;20398;-81
2023/03/22 00:37:53;;;;;;;3.58;1.88;;;10.80;1.00;;;;;;5039512;28;20474;-82
2023/03/22 00:40:19;;;;;;;3.23;2.30;;;10.80;99.90;;;;;;5039611;28;20371;-82
2023/03/22 00:42:44;;;;;;;2.70;2.40;;;10.50;1.00;;;;;;5039858;28;20478;-82
2023/03/22 00:45:11;;;;;;;3.30;2.40;;;10.30;1.00;;;;;;5039644;28;20387;-82
2023/03/22 00:47:37;;;;;;;2.85;2.22;;;10.00;1.00;;;;;;5020844;28;20434;-82
2023/03/22 00:50:04;;;;;;;2.40;2.20;;;9.90;1.00;;;;;;5037777;28;20884;-82
2023/03/22 00:52:30;;;;;;;3.50;2.40;;;9.70;1.00;;;;;;5020992;28;20784;-82
2023/03/22 00:54:56;;;;;;;2.35;2.15;;;9.70;1.00;;;;;;5019726;28;20466;-82
2023/03/22 00:57:22;;;;;;;1.67;1.58;;;9.50;1.00;;;;;;5037809;28;20391;-82
2023/03/22 00:59:48;;;;;;;2.22;2.03;;;9.50;1.00;;;;;;5019689;28;20379;-82
2023/03/22 01:02:14;;;;;;;2.50;2.10;;;9.40;1.00;;;;;;5020388;28;20398;-82
2023/03/22 01:04:45;;;;;;;2.20;2.00;;;9.30;1.00;;;;;;5019479;28;20383;-81
2023/03/22 01:07:16;;;;;;;2.72;1.85;;;9.20;29.70;;;;;;5037218;28;20387;-82
2023/03/22 01:09:44;;;;;;;2.40;2.10;;;9.10;33.70;;;;;;5019274;28;20430;-82
2023/03/22 01:12:10;;;;;;;2.00;1.90;;;9.00;99.90;;;;;;5036933;28;20445;-81
2023/03/22 01:14:35;;;;;;;2.83;2.10;;;9.00;76.00;;;;;;5037710;28;20481;-82
2023/03/22 01:17:01;;;;;;;2.88;2.28;;;9.00;80.00;;;;;;5037020;28;20399;-82
2023/03/22 01:19:26;;;;;;;2.60;2.40;;;8.90;93.80;;;;;;5036747;28;20391;-81
2023/03/22 01:21:53;;;;;;;3.03;2.00;;;9.00;73.30;;;;;;5036255;28;20823;-82
2023/03/22 01:24:19;;;;;;;2.50;2.05;;;8.90;57.70;;;;;;5036469;28;20388;-83
2023/03/22 01:26:45;;;;;;;2.90;1.90;;;8.80;99.60;;;;;;5037004;28;20380;-82
2023/03/22 01:29:10;;;;;;;2.43;2.20;;;8.70;99.90;;;;;;5036908;28;20406;-82
2023/03/22 01:31:36;;;;;;;3.03;2.00;;;8.60;99.90;;;;;;5018019;28;20391;-82
2023/03/22 01:34:02;;;;;;;3.50;2.57;;;8.60;99.90;;;;;;5017790;28;20450;-81
2023/03/22 01:36:28;;;;;;;2.47;2.28;;;8.60;99.90;;;;;;5018956;28;20395;-81
2023/03/22 01:38:53;;;;;;;3.65;2.20;;;8.50;99.90;;;;;;5035935;28;20429;-82
2023/03/22 01:41:19;;;;;;;2.00;1.90;;;8.40;99.90;;;;;;5017463;28;20375;-82
2023/03/22 01:43:44;;;;;;;3.37;2.07;;;8.40;99.90;;;;;;5017326;28;20402;-82
2023/03/22 01:46:10;;;;;;;3.47;2.10;;;8.40;99.90;;;;;;5018010;28;20396;-81
2023/03/22 01:48:44;;;;;;;2.10;2.00;;;8.40;99.90;;;;;;5037254;28;20470;-80
2023/03/22 01:51:20;;;;;;;2.40;2.20;;;8.40;99.90;;;;;;5019556;28;20714;-81
2023/03/22 01:53:49;;;;;;;2.47;2.28;;;8.30;99.90;;;;;;5036705;28;20414;-80
2023/03/22 01:56:18;;;;;;;3.25;2.13;;;8.30;99.90;;;;;;5036277;28;20406;-80
2023/03/22 01:58:44;;;;;;;3.30;2.10;;;8.20;99.90;;;;;;5037144;28;20478;-81
2023/03/22 02:01:10;;;;;;;1.85;1.70;;;8.20;99.90;;;;;;5036166;28;20453;-81
2023/03/22 02:03:53;;;;;;;2.90;2.00;;;8.20;99.90;;;;;;5036024;28;20391;-80
2023/03/22 02:06:20;;;;;;;2.75;2.30;;;8.10;99.90;;;;;;5018060;28;20449;-80
2023/03/22 02:08:45;;;;;;;2.20;1.95;;;8.10;99.90;;;;;;5036382;28;20489;-82
2023/03/22 02:11:26;;;;;;;2.70;1.80;;;8.10;99.90;;;;;;5037274;28;20434;-81
2023/03/22 02:14:09;;;;;;;2.63;2.03;;;8.10;99.90;;;;;;5037023;28;20433;-82
2023/03/22 02:16:46;;;;;;;2.70;2.08;;;8.10;99.90;;;;;;5019048;28;20391;-81
2023/03/22 02:19:41;;;;;;;3.15;2.10;;;8.00;99.90;;;;;;5036609;28;20481;-81
2023/03/22 02:22:20;;;;;;;3.42;2.35;;;7.90;99.90;;;;;;5036869;28;20423;-81
2023/03/22 02:25:13;;;;;;;3.05;2.20;;;7.80;99.90;;;;;;5037060;28;20395;-81
2023/03/22 02:28:11;;;;;;;2.40;1.90;;;7.80;99.90;;;;;;5015270;28;20409;-81
2023/03/22 02:30:55;;;;;;;2.63;2.10;;;7.80;99.90;;;;;;5019149;28;20990;-80
2023/03/22 02:33:46;;;;;;;3.58;2.00;;;7.70;99.90;;;;;;5036602;28;20414;-81
2023/03/22 02:36:33;;;;;;;3.67;2.03;;;7.80;99.90;;;;;;5018089;28;20419;-81
2023/03/22 02:39:06;;;;;;;2.40;2.20;;;7.70;99.90;;;;;;5036348;28;20399;-80
2023/03/22 02:41:38;;;;;;;2.70;1.95;;;7.70;99.90;;;;;;5017735;28;20398;-82
2023/03/22 02:44:18;;;;;;;3.30;2.40;;;7.70;99.90;;;;;;5035246;28;20433;-81
2023/03/22 02:46:58;;;;;;;2.50;2.30;;;7.70;99.90;;;;;;5035561;28;20765;-81
2023/03/22 02:49:37;;;;;;;3.80;2.10;;;7.60;99.90;;;;;;5018464;28;20405;-81
2023/03/22 02:52:09;;;;;;;2.25;2.00;;;7.60;99.90;;;;;;5035880;28;20398;-80
2023/03/22 02:54:54;;;;;;;2.25;2.05;;;7.60;99.90;;;;;;5035391;28;20411;-81
2023/03/22 02:57:29;;;;;;;2.20;2.00;;;7.60;99.90;;;;;;5017676;28;20766;-81
2023/03/22 02:59:57;;;;;;;2.97;2.28;;;7.70;99.90;;;;;;5017312;28;20402;-81
2023/03/22 03:02:24;;;;;;;3.65;2.08;;;7.60;99.90;;;;;;5034520;28;20395;-82
2023/03/22 03:04:52;;;;;;;2.53;1.80;;;7.60;99.90;;;;;;5017675;28;20436;-81
2023/03/22 03:07:23;;;;;;;3.70;2.13;;;7.60;99.90;;;;;;5017967;28;20804;-80
2023/03/22 03:09:50;;;;;;;2.63;2.00;;;7.60;99.90;;;;;;5017742;28;20391;-81
2023/03/22 03:12:24;;;;;;;2.38;2.00;;;7.50;99.90;;;;;;5016039;28;20399;-81
2023/03/22 03:14:50;;;;;;;1.83;1.70;;;7.60;99.90;;;;;;5035836;28;20490;-81
2023/03/22 03:17:49;;;;;;;2.92;1.80;;;7.60;99.90;;;;;;5036278;28;20429;-80
2023/03/22 03:20:41;;;;;;;3.42;1.70;;;7.60;99.90;;;;;;5017996;28;20379;-81
2023/03/22 03:23:17;;;;;;;3.55;2.22;;;7.60;99.90;;;;;;5037244;28;20530;-80
2023/03/22 03:26:00;;;;;;;2.88;2.20;;;7.50;99.90;;;;;;5019303;28;20426;-81
2023/03/22 03:28:43;;;;;;;2.30;2.10;;;7.50;99.90;;;;;;5036732;28;20383;-81
2023/03/22 03:31:24;;;;;;;2.50;1.90;;;7.60;99.90;;;;;;5035140;28;20402;-81
2023/03/22 03:34:03;;;;;;;3.25;1.80;;;7.60;93.90;;;;;;5040400;28;20856;-80
2023/03/22 03:36:32;;;;;;;2.20;2.00;;;7.60;96.00;;;;;;5041912;28;20391;-81
2023/03/22 03:39:00;;;;;;;2.78;1.70;;;7.60;97.70;;;;;;5022478;28;20436;-81
2023/03/22 03:41:29;;;;;;;3.63;1.77;;;7.60;75.80;;;;;;5040772;28;20386;-81
2023/03/22 03:43:57;;;;;;;2.00;1.70;;;7.60;61.80;;;;;;5038640;28;20433;-81
2023/03/22 03:46:23;;;;;;;2.30;2.10;;;7.50;97.90;;;;;;5021756;28;20395;-80
2023/03/22 03:48:51;;;;;;;1.95;1.83;;;7.50;99.90;;;;;;5021618;28;20398;-80
2023/03/22 03:51:17;;;;;;;2.70;1.77;;;7.50;99.90;;;;;;5021065;28;20399;-81
2023/03/22 03:53:43;;;;;;;3.50;1.80;;;7.40;99.90;;;;;;5039300;28;20553;-81
2023/03/22 03:56:08;;;;;;;3.50;2.10;;;7.40;93.10;;;;;;5020718;28;20413;-81
2023/03/22 03:58:34;;;;;;;3.40;1.80;;;7.40;99.90;;;;;;5039070;28;20520;-81
2023/03/22 04:00:59;;;;;;;3.42;1.88;;;7.40;99.90;;;;;;5039947;28;20441;-81
2023/03/22 04:03:25;;;;;;;2.50;1.65;;;7.40;99.90;;;;;;5038835;28;20521;-81
2023/03/22 04:05:50;;;;;;;2.63;2.10;;;7.50;90.60;;;;;;5038168;28;20416;-80
2023/03/22 04:08:16;;;;;;;1.90;1.80;;;7.40;73.10;;;;;;5020404;28;20947;-81
2023/03/22 04:10:42;;;;;;;1.93;1.83;;;7.40;91.10;;;;;;5038641;28;20853;-81
2023/03/22 04:13:08;;;;;;;2.80;2.08;;;7.30;99.90;;;;;;5020639;28;20411;-81
2023/03/22 04:15:33;;;;;;;4.43;1.95;;;7.20;99.90;;;;;;5038849;28;20386;-81
2023/03/22 04:17:59;;;;;;;2.60;2.40;;;7.20;99.90;;;;;;5021344;28;20433;-80
2023/03/22 04:20:25;;;;;;;2.40;2.20;;;7.20;99.90;;;;;;5020100;28;20403;-82
2023/03/22 04:22:51;;;;;;;3.47;2.00;;;7.10;99.90;;;;;;5038337;28;20464;-81
2023/03/22 04:25:17;;;;;;;2.30;2.10;;;7.10;99.90;;;;;;5019758;28;20407;-81
2023/03/22 04:27:44;;;;;;;4.10;1.60;;;7.10;99.90;;;;;;5038598;28;20417;-81
2023/03/22 04:30:18;;;;;;;2.47;2.20;;;6.90;99.90;;;;;;5039070;28;20389;-81
2023/03/22 04:32:48;;;;;;;2.60;1.90;;;6.90;99.90;;;;;;5020393;28;20390;-80
2023/03/22 04:35:14;;;;;;;2.58;2.10;;;7.00;99.90;;;;;;5038776;28;20425;-79
2023/03/22 04:37:41;;;;;;;1.83;1.73;;;7.00;99.90;;;;;;5038094;28;20469;-80
2023/03/22 04:40:08;;;;;;;3.15;1.80;;;7.00;99.90;;;;;;5027631;28;20391;-80
2023/03/22 04:42:34;;;;;;;2.78;2.20;;;7.00;99.90;;;;;;5051322;28;20413;-80
2023/03/22 04:45:02;;;;;;;3.50;2.60;;;7.00;99.90;;;;;;5032658;28;20439;-80
2023/03/22 04:47:28;;;;;;;3.00;2.00;;;7.00;99.90;;;;;;5050051;28;20387;-79
2023/03/22 04:49:53;;;;;;;2.10;1.90;;;6.90;99.90;;;;;;5033455;28;20541;-79
2023/03/22 04:52:19;;;;;;;3.38;2.08;;;6.90;99.90;;;;;;5048167;28;20459;-80
2023/03/22 04:54:44;;;;;;;2.40;2.20;;;6.80;99.90;;;;;;5023709;28;20441;-81
2023/03/22 04:57:10;;;;;;;2.80;2.20;;;6.80;99.90;;;;;;5022930;28;20478;-81
2023/03/22 04:59:35;;;;;;;2.10;1.90;;;6.80;99.90;;;;;;5040960;28;20387;-80
2023/03/22 05:02:01;;;;;;;3.10;2.10;;;6.70;99.90;;;;;;5023088;28;20405;-80
2023/03/22 05:04:27;;;;;;;2.30;2.10;;;6.70;99.90;;;;;;5021910;28;20916;-80
2023/03/22 05:06:52;;;;;;;2.80;2.20;;;6.70;99.90;;;;;;5038913;28;20386;-81
2023/03/22 05:09:18;;;;;;;4.50;2.40;;;6.70;99.90;;;;;;5039113;28;20395;-80
2023/03/22 05:11:44;;;;;;;3.17;2.20;;;6.70;99.90;;;;;;5021340;28;20482;-81
2023/03/22 05:14:10;;;;;;;2.92;2.17;;;6.60;99.90;;;;;;5021687;28;20407;-80
2023/03/22 05:16:39;;;;;;;3.13;2.35;;;6.60;99.90;;;;;;5038555;28;20375;-80
2023/03/22 05:19:12;;;;;;;4.13;2.20;;;6.70;99.90;;;;;;5019802;28;20423;-81
2023/03/22 05:21:39;;;;;;;3.10;2.45;;;6.70;99.90;;;;;;5020248;28;20457;-81
2023/03/22 05:24:06;;;;;;;3.28;2.10;;;6.70;99.90;;;;;;5020049;28;20491;-80
2023/03/22 05:26:31;;;;;;;4.18;2.40;;;6.60;99.90;;;;;;5037284;28;20434;-80
2023/03/22 05:28:57;;;;;;;2.70;2.50;;;6.70;99.90;;;;;;5039343;28;20388;-81
2023/03/22 05:31:22;;;;;;;3.10;2.00;;;6.70;99.90;;;;;;5020353;28;20792;-80
2023/03/22 05:33:50;;;;;;;3.03;2.28;;;6.70;99.90;;;;;;5036283;28;20407;-81
2023/03/22 05:36:17;;;;;;;3.73;2.73;;;6.70;99.90;;;;;;5020351;28;20414;-81
2023/03/22 05:38:44;;;;;;;4.20;2.70;;;6.70;99.90;;;;;;5020168;28;20430;-81
2023/03/22 05:41:10;;;;;;;3.38;2.38;;;6.70;99.90;;;;;;5019842;28;20487;-80
2023/03/22 05:43:36;;;;;;;2.50;2.30;;;6.70;99.90;;;;;;5019986;28;20395;-81
2023/03/22 05:46:10;;;;;;;3.20;2.60;;;6.70;99.90;;;;;;5026442;28;20448;-80
2023/03/22 05:48:36;;;;;;;3.42;2.20;;;6.70;99.90;;;;;;5030611;28;20391;-80
2023/03/22 05:51:05;;;;;;;2.87;2.47;;;6.80;99.90;;;;;;5048914;28;20453;-80
2023/03/22 05:53:31;;;;;;;2.80;2.60;;;6.60;99.90;;;;;;5028615;28;20418;-80
2023/03/22 05:55:59;;;;;;;2.97;2.40;;;6.80;99.90;;;;;;5040234;28;20391;-80
2023/03/22 05:58:27;;;;;;;2.80;2.30;;;6.80;99.90;;;;;;5030864;28;20877;-80
2023/03/22 06:00:54;;;;;;;4.70;2.50;;;6.80;99.90;;;;;;5020130;28;20407;-81
2023/03/22 06:03:20;;;;;;;2.75;2.15;;;6.80;99.90;;;;;;5029170;28;20466;-80
2023/03/22 06:05:49;;;;;;;3.10;2.70;;;6.80;99.90;;;;;;5043926;28;20445;-81
2023/03/22 06:08:15;;;;;;;3.60;2.40;;;6.80;99.90;;;;;;5037959;28;20387;-81
2023/03/22 06:10:41;;;;;;;3.65;2.10;;;6.80;99.90;;;;;;5039230;28;20393;-81
2023/03/22 06:13:06;;;;;;;4.50;2.30;;;6.80;99.90;;;;;;5038042;28;20486;-79
2023/03/22 06:15:32;;;;;;;2.80;2.30;;;6.90;99.90;;;;;;5022752;28;20411;-79
2023/03/22 06:17:57;;;;;;;3.90;2.10;;;6.80;99.90;;;;;;5028691;28;20496;-80
2023/03/22 06:20:24;;;;;;;2.72;2.33;;;6.90;99.90;;;;;;5017127;28;20502;-81
2023/03/22 06:22:50;;;;;;;3.88;1.98;;;7.00;99.90;;;;;;5016012;28;20390;-81
2023/03/22 06:25:15;;;;;;;2.20;2.00;;;7.10;99.90;;;;;;5031942;28;20399;-81
2023/03/22 06:27:41;;;;;;;2.72;1.90;;;7.20;99.90;;;;;;5033125;28;20397;-81
2023/03/22 06:30:07;;;;;;;2.20;2.00;;;7.20;99.90;;;;;;5033175;28;20756;-81
2023/03/22 06:32:32;;;;;;;1.92;1.83;;;7.30;99.90;;;;;;5033884;28;20395;-80
2023/03/22 06:34:58;;;;;;;3.30;2.10;;;7.40;99.90;;;;;;5033515;28;20413;-81
2023/03/22 06:37:24;;;;;;;2.78;2.17;;;7.40;99.90;;;;;;5033976;28;20387;-81
2023/03/22 06:39:50;;;;;;;3.08;1.80;;;7.60;99.90;;;;;;5032188;28;20935;-81
2023/03/22 06:42:16;;;;;;;2.30;2.10;;;7.60;99.90;;;;;;5017510;28;20394;-81
2023/03/22 06:44:43;;;;;;;2.40;1.88;;;7.80;99.90;;;;;;5014835;28;20387;-81
2023/03/22 06:47:10;;;;;;;2.17;1.98;;;7.80;73.80;;;;;;5032609;28;20739;-80
2023/03/22 06:49:36;;;;;;;2.10;1.90;;;7.90;73.40;;;;;;5033541;28;20946;-80
2023/03/22 06:52:02;;;;;;;2.20;2.00;;;8.00;42.70;;;;;;5015157;28;20481;-81
2023/03/22 06:54:28;;;;;;;2.35;1.73;;;8.00;82.10;;;;;;5033043;28;20410;-79
2023/03/22 06:56:53;;;;;;;2.20;2.00;;;8.10;45.00;;;;;;5032098;28;20442;-80
2023/03/22 06:59:19;;;;;;;3.13;2.10;;;8.20;65.00;;;;;;5015096;28;20403;-80
2023/03/22 07:01:44;;;;;;;3.38;2.28;;;8.30;27.20;;;;;;5034500;28;20945;-81
2023/03/22 07:04:10;;;;;;;2.30;2.10;;;8.40;7.10;;;;;;5015402;28;20398;-80
2023/03/22 07:06:35;;;;;;;3.10;2.00;;;8.60;3.60;;;;;;5015403;28;20423;-80
2023/03/22 07:09:01;;;;;;;3.00;1.80;;;8.70;4.80;;;;;;5016852;28;20500;-81
2023/03/22 07:11:27;;;;;;;3.90;1.90;;;8.80;1.00;;;;;;5036678;28;20570;-81
2023/03/22 07:13:53;;;;;;;3.00;1.92;;;9.00;1.00;;;;;;5036502;28;20790;-81
2023/03/22 07:16:19;;;;;;;2.10;1.90;;;9.00;1.00;;;;;;5018207;28;20490;-79
2023/03/22 07:18:44;;;;;;;3.95;2.10;;;9.10;1.00;;;;;;5030282;28;20398;-80
2023/03/22 07:21:10;;;;;;;2.33;2.05;;;9.30;1.00;;;;;;5036139;28;20561;-81
2023/03/22 07:23:35;;;;;;;3.10;1.80;;;9.40;1.00;;;;;;5037189;28;20818;-81
2023/03/22 07:26:01;;;;;;;2.30;1.90;;;9.50;1.00;;;;;;5040687;22;20439;-91
2023/03/22 07:28:27;;;;;;;2.63;2.00;;;9.30;1.00;;;;;;5022083;28;20460;-91
2023/03/22 07:31:00;;;;;;;2.35;1.88;;;9.60;1.00;;;;;;5020614;28;20430;-91
2023/03/22 07:33:26;;;;;;;2.97;1.80;;;9.70;1.00;;;;;;5019901;28;20403;-91
2023/03/22 07:35:51;;;;;;;1.80;1.70;;;9.70;1.00;;;;;;5032763;28;20431;-92
2023/03/22 07:38:18;;;;;;;4.97;2.10;;;9.90;1.00;;;;;;5036478;28;20395;-91
2023/03/22 07:40:43;;;;;;;2.70;2.17;;;10.90;1.00;;;;;;5040122;28;20413;-91
2023/03/22 07:43:21;;;;;;;2.85;2.10;;;9.70;1.00;;;;;;5046012;28;20427;-91
2023/03/22 07:45:51;;;;;;;3.00;2.20;;;10.20;1.00;;;;;;5038028;28;20391;-91
2023/03/22 07:48:18;;;;;;;2.20;2.00;;;10.50;1.00;;;;;;5037206;28;20391;-90
2023/03/22 07:50:53;;;;;;;2.83;1.80;;;10.40;1.00;;;;;;5032297;28;20392;-89
2023/03/22 07:53:19;;;;;;;2.00;1.70;;;10.50;1.00;;;;;;5030219;28;20982;-88
2023/03/22 07:55:46;;;;;;;2.63;2.03;;;11.50;1.00;;;;;;5040423;28;20398;-89
2023/03/22 07:58:38;;;;;;;3.10;1.83;;;10.80;1.00;;;;;;5040069;28;20391;-90
2023/03/22 08:01:08;;;;;;;1.60;1.50;;;11.00;1.00;;;;;;5032257;28;20396;-88
2023/03/22 08:03:35;;;;;;;2.47;1.90;;;11.30;1.00;;;;;;5034704;28;20987;-90
2023/03/22 08:06:06;;;;;;;1.65;1.55;;;11.00;99.90;;;;;;5036873;28;20417;-90
2023/03/22 08:08:41;;;;;;;1.92;1.80;;;11.30;99.90;;;;;;5037511;28;20498;-90
2023/03/22 08:11:13;;;;;;;2.58;1.90;;;11.50;99.90;;;;;;5035448;28;21118;-90
2023/03/22 08:13:46;;;;;;;4.30;1.80;;;11.70;73.10;;;;;;5054669;28;20437;-90
2023/03/22 08:16:18;;;;;;;1.60;1.50;;;11.90;1.00;;;;;;5043035;28;20415;-89
2023/03/22 08:18:55;;;;;;;2.00;1.60;;;12.10;1.00;;;;;;5036697;28;20418;-89
2023/03/22 08:21:27;;;;;;;2.30;1.60;;;12.20;1.00;;;;;;5041548;28;20394;-89
2023/03/22 08:23:52;;;;;;;2.78;1.73;;;12.20;1.00;;;;;;5043457;28;20387;-91
2023/03/22 08:26:18;;;;;;;4.23;2.10;;;13.30;99.90;;;;;;5040309;28;20465;-91
2023/03/22 08:28:44;;;;;;;3.22;1.60;;;13.70;14.90;;;;;;5022327;28;20445;-91
2023/03/22 08:31:14;;;;;;;1.60;1.50;;;12.80;99.90;;;;;;5021886;28;20418;-91
2023/03/22 08:33:40;;;;;;;1.92;1.70;;;13.00;1.00;;;;;;5037970;28;20470;-91
2023/03/22 08:36:09;;;;;;;1.63;1.20;;;13.20;1.00;;;;;;5036369;28;20399;-91
2023/03/22 08:38:35;;;;;;;1.50;1.23;;;13.40;1.00;;;;;;5038640;28;20387;-91
2023/03/22 08:41:00;;;;;;;2.67;1.20;;;13.70;1.00;;;;;;5039365;28;20984;-90
2023/03/22 08:43:26;;;;;;;3.00;1.20;;;13.80;99.90;;;;;;5038937;28;20393;-90
2023/03/22 08:45:51;;;;;;;2.50;1.30;;;13.80;99.90;;;;;;5038501;28;20399;-90
2023/03/22 08:48:17;;;;;;;2.20;1.20;;;14.70;1.00;;;;;;5040926;28;21056;-91
2023/03/22 08:50:43;;;;;;;2.10;1.10;;;15.40;1.00;;;;;;5038544;28;20383;-90
2023/03/22 08:53:09;;;;;;;3.70;1.50;;;14.50;55.90;;;;;;5038391;28;20442;-90
2023/03/22 08:55:35;;;;;;;1.13;0.70;;;15.20;1.00;;;;;;5038690;28;20399;-91
2023/03/22 08:58:02;;;;;;;1.40;1.10;;;16.00;1.00;;;;;;5038494;28;20399;-91
2023/03/22 09:00:29;;;;;;;1.92;0.70;;;15.30;1.00;;;;;;5038272;28;20399;-88
2023/03/22 09:03:06;;;;;;;1.88;0.90;;;15.40;1.00;;;;;;5039174;28;20889;-90
2023/03/22 09:05:47;;;;;;;1.50;1.08;;;15.60;1.00;;;;;;5040774;28;20391;-91
2023/03/22 09:08:19;;;;;;;0.65;0.65;;;15.80;1.00;;;;;;5039719;28;20789;-91
2023/03/22 09:10:50;;;;;;;0.82;0.80;;;16.00;1.00;;;;;;5040385;28;20458;-91
2023/03/22 09:13:45;;;;;;;1.58;1.00;;;15.90;1.00;;;;;;5043095;28;20425;-90
2023/03/22 09:16:16;;;;;;;1.90;1.10;;;15.90;1.00;;;;;;5050610;28;20387;-90
2023/03/22 09:18:54;;;;;;;0.70;0.70;;;15.90;1.00;;;;;;5050553;28;20410;-91
2023/03/22 09:21:20;;;;;;;1.10;1.00;;;16.70;1.00;;;;;;5042668;28;20388;-91
2023/03/22 09:23:54;;;;;;;0.80;0.80;;;16.80;1.00;;;;;;5041683;28;20395;-90
2023/03/22 09:26:28;;;;;;;1.20;0.80;;;15.90;1.00;;;;;;5052015;28;20379;-92
2023/03/22 09:29:11;;;;;;;1.90;1.00;;;16.00;1.00;;;;;;5055039;28;20482;-91
2023/03/22 09:31:43;;;;;;;0.95;0.85;;;16.50;99.90;;;;;;5048817;28;20429;-90
2023/03/22 09:34:11;;;;;;;0.90;0.70;;;16.70;99.90;;;;;;5038744;28;20782;-91
2023/03/22 09:36:37;;;;;;;1.30;1.00;;;16.20;99.90;;;;;;5037163;28;20388;-91
2023/03/22 09:39:08;;;;;;;1.40;0.70;;;16.30;99.90;;;;;;5040183;28;20397;-91
2023/03/22 09:41:43;;;;;;;1.53;0.87;;;17.00;99.90;;;;;;5037126;28;20383;-91
2023/03/22 09:44:30;;;;;;;0.75;0.70;;;17.20;99.90;;;;;;5032941;28;20474;-90
2023/03/22 09:46:58;;;;;;;1.00;0.80;;;16.40;99.90;;;;;;5034709;28;20402;-91
2023/03/22 09:49:29;;;;;;;2.13;0.80;;;16.40;99.90;;;;;;5035431;28;20414;-89
2023/03/22 09:52:17;;;;;;;1.40;0.73;;;16.40;99.90;;;;;;5034605;28;20414;-91
2023/03/22 09:54:50;;;;;;;1.20;0.90;;;16.70;99.90;;;;;;5035545;28;20403;-91
2023/03/22 09:57:28;;;;;;;1.05;0.90;;;16.20;99.90;;;;;;5035383;28;20387;-91
2023/03/22 10:00:11;;;;;;;1.60;0.70;;;16.50;99.90;;;;;;5032947;28;20379;-91
2023/03/22 10:03:07;;;;;;;0.80;0.73;;;16.60;99.90;;;;;;5034831;28;20445;-92
2023/03/22 10:05:57;;;;;;;1.42;0.80;;;16.60;99.90;;;;;;5036805;28;20391;-91
2023/03/22 10:09:08;;;;;;;0.80;0.70;;;16.80;99.90;;;;;;5036106;28;20383;-91
2023/03/22 10:12:06;;;;;;;1.70;0.70;;;16.60;99.90;;;;;;5035480;28;20727;-91
2023/03/22 10:14:46;;;;;;;0.80;0.60;;;16.90;99.90;;;;;;5034281;28;20403;-91
2023/03/22 10:17:15;;;;;;;2.20;1.00;;;16.90;99.90;;;;;;5037957;28;20395;-92
2023/03/22 10:20:12;;;;;;;1.08;0.95;;;17.80;99.90;;;;;;5037244;28;20387;-91
2023/03/22 10:22:42;;;;;;;1.50;0.90;;;16.90;99.90;;;;;;5035019;28;20478;-91
2023/03/22 10:26:07;;;;;;;1.02;0.88;;;16.90;99.90;;;;;;5036676;28;20391;-89
2023/03/22 10:29:02;;;;;;;2.10;1.00;;;17.10;99.90;;;;;;5043932;28;20431;-92
2023/03/22 10:31:36;;;;;;;1.20;0.90;;;17.20;99.90;;;;;;5052383;28;20485;-89
2023/03/22 10:34:22;;;;;;;2.30;1.17;;;17.30;99.90;;;;;;5040023;28;20368;-89
2023/03/22 10:36:54;;;;;;;1.80;0.80;;;17.20;99.90;;;;;;5038841;28;20371;-92
2023/03/22 11:28:09;;;;;;;1.85;1.00;;;18.30;99.90;;;;;;5072004;28;20417;-91
2023/03/22 11:33:46;;;;;;;1.20;0.90;;;18.60;99.90;;;;;;5040713;22;20458;-91
2023/03/22 11:39:58;;;;;;;;;;;;;;;;;;;;;
2023/03/22 11:45:54;;;;;;;1.50;1.00;;;20.80;80.70;;;;;;5014700;28;20913;-89
2023/03/22 11:49:03;;;;;;;4.40;1.30;;;21.10;61.60;;;;;;5011246;28;20421;-90
2023/03/22 11:52:35;;;;;;;;;;;;;;;;;;;;;
2023/03/22 11:58:58;;;;;;;2.28;1.20;;;20.90;27.40;;;;;;4979351;28;20468;-89
2023/03/22 12:02:02;;;;;;;1.27;1.10;;;20.50;27.50;;;;;;5008101;28;20428;-90
2023/03/22 12:05:26;;;;;;;;;;;;;;;;;;;;;
2023/03/22 12:07:50;;;;;;;1.83;1.00;;;19.90;22.00;;;;;;5011786;28;20416;-89
2023/03/22 12:10:52;;;;;;;1.20;0.80;;;19.90;26.30;;;;;;5008458;28;20393;-89
2023/03/22 12:13:37;;;;;;;1.20;1.00;;;20.70;23.60;;;;;;5001534;28;20475;-89
2023/03/22 12:16:16;;;;;;;1.50;1.10;;;21.60;22.20;;;;;;5001899;28;20401;-91
2023/03/22 12:19:14;;;;;;;1.40;0.95;;;21.50;17.00;;;;;;5001168;28;20495;-89
2023/03/22 12:21:49;;;;;;;1.48;1.20;;;21.70;16.00;;;;;;5006748;28;20427;-90
2023/03/22 12:24:33;;;;;;;1.20;1.00;;;21.70;19.20;;;;;;5031188;28;20421;-90
2023/03/22 12:27:44;;;;;;;2.00;1.10;;;21.90;15.30;;;;;;4999677;28;20408;-90
2023/03/22 12:31:09;;;;;;;;;;;;;;;;;;;;;
2023/03/22 12:33:50;;;;;;;1.85;1.20;;;22.90;9.10;;;;;;5020993;28;20472;-88
2023/03/22 12:36:44;;;;;;;2.05;1.15;;;22.60;7.20;;;;;;5008272;28;20389;-89
2023/03/22 12:40:05;;;;;;;1.50;1.15;;;22.50;10.10;;;;;;5007916;28;20505;-90
2023/03/22 12:42:48;;;;;;;1.33;1.10;;;23.20;5.30;;;;;;4945411;29;20432;-91
2023/03/22 12:46:02;;;;;;;1.20;1.10;;;23.10;5.60;;;;;;4950544;28;20456;-90
2023/03/22 12:48:43;;;;;;;1.50;1.20;;;22.60;3.40;;;;;;4996753;28;20393;-90
2023/03/22 12:51:19;;;;;;;1.10;1.00;;;23.60;4.70;;;;;;5021200;28;20408;-89
2023/03/22 12:54:24;;;;;;;2.45;1.10;;;23.60;1.00;;;;;;5010900;28;20404;-91
2023/03/22 12:57:05;;;;;;;0.93;0.80;;;23.20;1.00;;;;;;5008155;28;20414;-91
2023/03/22 12:59:56;;;;;;;1.80;1.40;;;22.50;1.00;;;;;;5004834;28;20458;-89
2023/03/22 13:02:39;;;;;;;1.30;1.00;;;23.00;3.90;;;;;;5020344;28;20393;-90
2023/03/22 13:05:32;;;;;;;1.20;0.88;;;22.40;1.00;;;;;;4999377;28;20455;-90
2023/03/22 13:08:24;;;;;;;1.10;1.00;;;22.40;1.00;;;;;;5003127;28;20393;-91
2023/03/22 13:11:19;;;;;;;1.60;1.08;;;22.60;1.00;;;;;;5007500;28;20395;-90
2023/03/22 13:17:22;;;;;;;1.00;0.90;;;22.80;1.00;;;;;;5124897;22;20835;-92
2023/03/22 13:26:04;;;;;;;0.90;0.90;;;22.80;1.00;;;;;;5357555;22;20451;-80
2023/03/22 13:28:36;;;;;;;1.10;0.87;;;22.70;1.00;;;;;;5020007;28;20405;-79
2023/03/22 13:31:02;;;;;;;1.40;0.80;;;23.70;1.00;;;;;;5008875;28;20417;-80
2023/03/22 13:33:31;;;;;;;1.08;0.80;;;22.90;1.00;;;;;;5026573;28;20395;-81
2023/03/22 13:35:59;;;;;;;0.60;0.60;;;22.90;1.00;;;;;;5027519;28;20388;-80
2023/03/22 13:38:26;;;;;;;1.40;1.00;;;22.90;1.00;;;;;;5006465;28;20759;-79
2023/03/22 13:40:53;;;;;;;3.03;1.00;;;22.00;1.00;;;;;;5026016;28;20437;-80
2023/03/22 13:43:50;;;;;;;1.00;0.90;;;21.50;1.00;;;;;;5000366;28;20412;-79
2023/03/22 13:46:19;;;;;;;1.83;1.00;;;20.90;1.00;;;;;;5016971;28;20767;-80
2023/03/22 13:48:51;;;;;;;2.30;1.10;;;20.40;1.00;;;;;;4999059;28;20752;-80
2023/03/22 13:51:19;;;;;;;1.23;0.90;;;20.90;1.00;;;;;;4998072;28;20848;-80
2023/03/22 13:54:12;;;;;;;1.10;1.00;;;20.70;1.00;;;;;;5016101;28;20444;-81
2023/03/22 13:56:43;;;;;;;2.17;1.20;;;20.90;1.00;;;;;;5017992;28;20385;-81
2023/03/22 13:59:21;;;;;;;3.85;1.10;;;21.20;1.00;;;;;;4997571;28;20396;-81
2023/03/22 14:02:09;;;;;;;1.60;0.80;;;21.30;1.00;;;;;;4997664;28;20484;-81
2023/03/22 14:04:47;;;;;;;1.80;0.80;;;22.00;1.00;;;;;;4997405;28;20412;-82
2023/03/22 14:07:25;;;;;;;1.50;1.00;;;21.90;1.00;;;;;;5002946;28;20439;-81
2023/03/22 14:10:04;;;;;;;1.13;1.00;;;22.00;1.00;;;;;;5000522;28;20484;-81
2023/03/22 14:12:30;;;;;;;1.10;1.00;;;21.70;1.00;;;;;;5015689;28;20397;-82
2023/03/22 14:15:01;;;;;;;1.88;1.10;;;21.90;1.00;;;;;;4998338;28;20389;-81
2023/03/22 14:17:45;;;;;;;2.70;1.10;;;22.60;1.00;;;;;;4996047;28;20421;-82
2023/03/22 14:20:18;;;;;;;1.10;0.90;;;23.10;1.00;;;;;;5015654;28;20454;-82
2023/03/22 14:22:54;;;;;;;2.20;1.42;;;23.00;1.00;;;;;;4998410;28;20392;-82
2023/03/22 14:25:24;;;;;;;1.40;1.00;;;23.30;1.00;;;;;;5014578;28;20419;-82
2023/03/22 14:27:50;;;;;;;3.00;1.00;;;23.00;1.00;;;;;;4999375;28;20431;-81
2023/03/22 14:30:26;;;;;;;0.97;0.87;;;22.20;1.00;;;;;;5014441;28;20476;-82
2023/03/22 14:32:58;;;;;;;1.00;0.82;;;21.20;1.00;;;;;;4996558;28;20404;-82
2023/03/22 14:35:44;;;;;;;1.67;1.10;;;21.00;1.00;;;;;;5013921;28;20388;-82
2023/03/22 14:38:17;;;;;;;1.88;1.10;;;20.50;1.00;;;;;;4996136;28;20435;-82
2023/03/22 14:40:43;;;;;;;1.80;1.00;;;20.80;1.00;;;;;;5013778;28;20393;-81
2023/03/22 14:43:18;;;;;;;1.08;0.90;;;20.80;1.00;;;;;;4996562;28;20855;-82